| time (UTC) | temp C | wind direction | speed KPH | gust KPH | rain 1hr cm | rain 24hr cm | rain mn cm | humidity % | barometer mb |
| 20260906234518 | 33 | 118 | 3.2 | 8.0 | 0.00 | 0.00 | 0.00 | 44 | 1012.5 |
| 20260906233525 | 33 | 44 | 3.2 | 6.4 | 0.00 | 0.00 | 0.00 | 42 | 1012.5 |
| 20260906232531 | 34 | 164 | 4.8 | 6.4 | 0.00 | 0.00 | 0.00 | 41 | 1012.6 |
| 20260906231548 | 34 | 130 | 6.4 | 9.7 | 0.00 | 0.00 | 0.00 | 41 | 1012.6 |
| 20260906230523 | 35 | 171 | 6.4 | 11.3 | 0.00 | 0.00 | 0.00 | 41 | 1012.6 |
| 20260906225520 | 35 | 122 | 6.4 | 11.3 | 0.00 | 0.00 | 0.00 | 40 | 1012.6 |
| 20260906224530 | -17 | 0.0 | 0.0 | 0.00 | 0.00 | 0.00 | 1012.9 | ||
| 20260906223526 | 36 | 3.2 | 3.2 | 0.00 | 0.00 | 0.00 | 38 | 1013.0 | |
| 20260906222523 | -17 | 270 | 4.8 | 6.4 | 0.00 | 0.00 | 0.00 | 1013.1 | |
| 20260906221519 | -17 | 0.0 | 0.0 | 0.00 | 0.00 | 0.00 | 1013.1 | ||
| 20260906220518 | 36 | 231 | 8.0 | 11.3 | 0.00 | 0.00 | 0.00 | 39 | 1013.2 |
| 20260906215524 | 36 | 208 | 8.0 | 11.3 | 0.00 | 0.00 | 0.00 | 39 | 1013.4 |
| 20260906214521 | 36 | 245 | 4.8 | 9.7 | 0.00 | 0.00 | 0.00 | 41 | 1013.4 |
| 20260906213522 | 35 | 209 | 4.8 | 8.0 | 0.00 | 0.00 | 0.00 | 43 | 1013.6 |
| 20260906212533 | 34 | 206 | 6.4 | 9.7 | 0.00 | 0.00 | 0.00 | 45 | 1013.8 |
| 20260906211529 | 35 | 207 | 6.4 | 8.0 | 0.00 | 0.00 | 0.00 | 43 | 1013.8 |
| 20260906210524 | 36 | 186 | 6.4 | 9.7 | 0.00 | 0.00 | 0.00 | 42 | 1013.9 |
| 20260906205520 | 35 | 243 | 6.4 | 9.7 | 0.00 | 0.00 | 0.00 | 44 | 1014.0 |
| 20260906204532 | 36 | 197 | 6.4 | 12.9 | 0.00 | 0.00 | 0.00 | 43 | 1014.3 |
| 20260906203628 | 36 | 219 | 6.4 | 9.7 | 0.00 | 0.00 | 0.00 | 42 | 1014.5 |
| 20260906202523 | 36 | 222 | 4.8 | 8.0 | 0.00 | 0.00 | 0.00 | 43 | 1014.5 |
| 20260906201519 | 35 | 207 | 6.4 | 11.3 | 0.00 | 0.00 | 0.00 | 43 | 1014.5 |
| 20260906200520 | 34 | 145 | 8.0 | 11.3 | 0.00 | 0.00 | 0.00 | 46 | 1014.5 |
| 20260906195526 | 37 | 187 | 8.0 | 11.3 | 0.00 | 0.00 | 0.00 | 39 | 1014.7 |
| 20260906194522 | 37 | 165 | 8.0 | 14.5 | 0.00 | 0.00 | 0.00 | 40 | 1014.7 |
| 20260906193539 | 33 | 159 | 9.7 | 11.3 | 0.00 | 0.00 | 0.00 | 44 | 1014.7 |
| 20260906192519 | 35 | 163 | 8.0 | 11.3 | 0.00 | 0.00 | 0.00 | 42 | 1014.8 |
| 20260906191530 | 35 | 188 | 4.8 | 9.7 | 0.00 | 0.00 | 0.00 | 44 | 1014.8 |
| 20260906190526 | 33 | 128 | 8.0 | 11.3 | 0.00 | 0.00 | 0.00 | 48 | 1014.8 |
| 20260906185522 | 33 | 210 | 4.8 | 8.0 | 0.00 | 0.00 | 0.00 | 46 | 1015.0 |
| 20260906184518 | 35 | 274 | 6.4 | 9.7 | 0.00 | 0.00 | 0.00 | 43 | 1015.2 |
| 20260906183529 | -17 | 135 | 8.0 | 8.0 | 0.00 | 0.00 | 0.00 | 1015.2 | |
| 20260906182525 | 35 | 1.6 | 1.6 | 0.00 | 0.00 | 0.00 | 43 | 1015.4 | |
| 20260906181521 | 33 | 97 | 4.8 | 8.0 | 0.00 | 0.00 | 0.00 | 45 | 1015.6 |
| 20260906180521 | 34 | 284 | 4.8 | 8.0 | 0.00 | 0.00 | 0.00 | 44 | 1015.7 |
| 20260906175548 | 33 | 315 | 6.4 | 12.9 | 0.00 | 0.00 | 0.00 | 48 | 1016.0 |
| 20260906174542 | 32 | 212 | 4.8 | 6.4 | 0.00 | 0.00 | 0.00 | 51 | 1016.2 |
| 20260906173518 | 32 | 5 | 4.8 | 9.7 | 0.00 | 0.00 | 0.00 | 52 | 1016.4 |
| 20260906172529 | 32 | 348 | 6.4 | 9.7 | 0.00 | 0.00 | 0.00 | 53 | 1016.5 |
| 20260906171525 | 32 | 211 | 4.8 | 8.0 | 0.00 | 0.00 | 0.00 | 53 | 1016.6 |
| 20260906170521 | 31 | 318 | 4.8 | 9.7 | 0.00 | 0.00 | 0.00 | 53 | 1016.7 |
| 20260906165528 | 31 | 346 | 6.4 | 9.7 | 0.00 | 0.00 | 0.00 | 55 | 1016.7 |
| 20260906164529 | 30 | 333 | 6.4 | 9.7 | 0.00 | 0.00 | 0.00 | 56 | 1016.8 |
| 20260906163521 | 30 | 339 | 3.2 | 6.4 | 0.00 | 0.00 | 0.00 | 56 | 1016.8 |
| 20260906162542 | 30 | 176 | 4.8 | 8.0 | 0.00 | 0.00 | 0.00 | 58 | 1016.7 |
| 20260906161533 | 30 | 335 | 6.4 | 9.7 | 0.00 | 0.00 | 0.00 | 56 | 1016.7 |
| 20260906160550 | 30 | 304 | 3.2 | 8.0 | 0.00 | 0.00 | 0.00 | 58 | 1016.7 |
| 20260906155530 | 29 | 311 | 4.8 | 6.4 | 0.00 | 0.00 | 0.00 | 61 | 1016.8 |
| 20260906154525 | 29 | 295 | 3.2 | 4.8 | 0.00 | 0.00 | 0.00 | 62 | 1016.6 |
| 20260906153520 | 29 | 62 | 3.2 | 6.4 | 0.00 | 0.00 | 0.00 | 62 | 1016.5 |
| 20260906152532 | 29 | 211 | 1.6 | 6.4 | 0.00 | 0.00 | 0.00 | 64 | 1016.3 |
| 20260906151527 | 28 | 147 | 3.2 | 6.4 | 0.00 | 0.00 | 0.00 | 67 | 1016.3 |
| 20260906150544 | 27 | 160 | 4.8 | 6.4 | 0.00 | 0.00 | 0.00 | 69 | 1016.3 |
| 20260906145541 | 27 | 124 | 6.4 | 8.0 | 0.00 | 0.00 | 0.00 | 70 | 1016.2 |
| 20260906144526 | 27 | 143 | 6.4 | 9.7 | 0.00 | 0.00 | 0.00 | 71 | 1016.3 |
| 20260906143529 | 27 | 141 | 6.4 | 11.3 | 0.00 | 0.00 | 0.00 | 69 | 1016.1 |
| 20260906142523 | 27 | 207 | 1.6 | 4.8 | 0.00 | 0.00 | 0.00 | 69 | 1016.1 |
| 20260906141520 | 27 | 225 | 1.6 | 4.8 | 0.00 | 0.00 | 0.00 | 69 | 1016.1 |
| 20260906140522 | 27 | 194 | 3.2 | 6.4 | 0.00 | 0.00 | 0.00 | 67 | 1016.1 |
| 20260906135522 | 27 | 191 | 1.6 | 4.8 | 0.00 | 0.00 | 0.00 | 67 | 1015.9 |
| 20260906134519 | 27 | 182 | 4.8 | 6.4 | 0.00 | 0.00 | 0.00 | 67 | 1015.6 |
| 20260906133527 | 27 | 201 | 1.6 | 4.8 | 0.00 | 0.00 | 0.00 | 67 | 1015.5 |
| 20260906132519 | 28 | 117 | 3.2 | 6.4 | 0.00 | 0.00 | 0.00 | 66 | 1015.3 |
| 20260906131539 | 27 | 164 | 1.6 | 4.8 | 0.00 | 0.00 | 0.00 | 70 | 1015.2 |
| 20260906130531 | 25 | 0.0 | 1.6 | 0.00 | 0.00 | 0.00 | 76 | 1015.0 | |
| 20260906125525 | 25 | 0.0 | 0.0 | 0.00 | 0.00 | 0.00 | 79 | 1015.0 | |
| 20260906124616 | 24 | 0.0 | 0.0 | 0.00 | 0.00 | 0.00 | 80 | 1014.8 | |
| 20260906123533 | 24 | 0.0 | 0.0 | 0.00 | 0.00 | 0.00 | 81 | 1014.7 | |
| 20260906122532 | 24 | 0.0 | 0.0 | 0.00 | 0.00 | 0.00 | 81 | 1014.7 | |
| 20260906121533 | 24 | 0.0 | 0.0 | 0.00 | 0.00 | 0.00 | 79 | 1014.6 | |
| 20260906120545 | 25 | 0.0 | 0.0 | 0.00 | 0.00 | 0.00 | 78 | 1014.5 | |
| 20260906115540 | 25 | 0.0 | 0.0 | 0.00 | 0.00 | 0.00 | 78 | 1014.3 | |
| 20260906114524 | 25 | 0.0 | 0.0 | 0.00 | 0.00 | 0.00 | 78 | 1014.1 | |
| 20260906113523 | 25 | 0.0 | 0.0 | 0.00 | 0.00 | 0.00 | 79 | 1013.9 | |
| 20260906112616 | 25 | 0.0 | 0.0 | 0.00 | 0.00 | 0.00 | 79 | 1013.9 | |
| 20260906111543 | 25 | 0.0 | 0.0 | 0.00 | 0.00 | 0.00 | 79 | 1013.8 | |
| 20260906110523 | 25 | 0.0 | 0.0 | 0.00 | 0.00 | 0.00 | 78 | 1013.6 | |
| 20260906105542 | 25 | 0.0 | 0.0 | 0.00 | 0.00 | 0.00 | 78 | 1013.6 | |
| 20260906104519 | 25 | 0.0 | 0.0 | 0.00 | 0.00 | 0.00 | 79 | 1013.7 | |
| 20260906103527 | 24 | 0.0 | 0.0 | 0.00 | 0.00 | 0.00 | 80 | 1013.8 | |
| 20260906102521 | 25 | 0.0 | 0.0 | 0.00 | 0.00 | 0.00 | 79 | 1013.7 | |
| 20260906101521 | 25 | 0.0 | 0.0 | 0.00 | 0.00 | 0.00 | 78 | 1013.7 | |
| 20260906100532 | 25 | 0.0 | 0.0 | 0.00 | 0.00 | 0.00 | 78 | 1013.7 | |
| 20260906095527 | 25 | 0.0 | 0.0 | 0.00 | 0.00 | 0.00 | 77 | 1013.6 | |
| 20260906094520 | 25 | 0.0 | 0.0 | 0.00 | 0.00 | 0.00 | 75 | 1013.7 | |
| 20260906093531 | 25 | 0.0 | 0.0 | 0.00 | 0.00 | 0.00 | 75 | 1013.7 | |
| 20260906092532 | 26 | 0.0 | 0.0 | 0.00 | 0.00 | 0.00 | 74 | 1013.6 | |
| 20260906091526 | 26 | 0.0 | 0.0 | 0.00 | 0.00 | 0.00 | 74 | 1013.6 | |
| 20260906090520 | 26 | 204 | 1.6 | 6.4 | 0.00 | 0.00 | 0.00 | 73 | 1013.7 |
| 20260906085524 | 26 | 212 | 1.6 | 3.2 | 0.00 | 0.00 | 0.00 | 73 | 1013.6 |
| 20260906084523 | 26 | 221 | 1.6 | 4.8 | 0.00 | 0.00 | 0.00 | 72 | 1013.4 |
| 20260906083534 | 26 | 270 | 0.0 | 4.8 | 0.00 | 0.00 | 0.00 | 72 | 1013.6 |
| 20260906082530 | 26 | 189 | 4.8 | 8.0 | 0.00 | 0.00 | 0.00 | 71 | 1013.6 |
| 20260906081524 | 26 | 215 | 1.6 | 6.4 | 0.00 | 0.00 | 0.00 | 71 | 1013.6 |
| 20260906080616 | 26 | 215 | 3.2 | 6.4 | 0.00 | 0.00 | 0.00 | 71 | 1013.7 |
| 20260906075550 | 27 | 206 | 3.2 | 4.8 | 0.00 | 0.00 | 0.00 | 71 | 1014.0 |
| 20260906074545 | 27 | 203 | 0.0 | 4.8 | 0.00 | 0.00 | 0.00 | 70 | 1014.2 |
| 20260906073522 | 27 | 199 | 3.2 | 4.8 | 0.00 | 0.00 | 0.00 | 69 | 1014.3 |
| 20260906072528 | 27 | 187 | 3.2 | 6.4 | 0.00 | 0.00 | 0.00 | 69 | 1014.3 |
| 20260906071520 | 27 | 190 | 4.8 | 6.4 | 0.00 | 0.00 | 0.00 | 68 | 1014.4 |
| 20260906070542 | 27 | 175 | 4.8 | 6.4 | 0.00 | 0.00 | 0.00 | 69 | 1014.5 |
| 20260906065532 | 27 | 190 | 4.8 | 8.0 | 0.00 | 0.00 | 0.00 | 68 | 1014.5 |
| 20260906064527 | 27 | 178 | 6.4 | 9.7 | 0.00 | 0.00 | 0.00 | 68 | 1014.5 |
| 20260906063523 | 28 | 199 | 6.4 | 8.0 | 0.00 | 0.00 | 0.00 | 67 | 1014.7 |
| 20260906062520 | 28 | 179 | 4.8 | 6.4 | 0.00 | 0.00 | 0.00 | 67 | 1014.7 |
| 20260906061532 | 28 | 175 | 4.8 | 6.4 | 0.00 | 0.00 | 0.00 | 66 | 1014.7 |
| 20260906060527 | 28 | 180 | 4.8 | 8.0 | 0.00 | 0.00 | 0.00 | 65 | 1014.8 |
| 20260906055529 | 28 | 169 | 6.4 | 9.7 | 0.00 | 0.00 | 0.00 | 65 | 1014.7 |
| 20260906054544 | 28 | 167 | 8.0 | 12.9 | 0.00 | 0.00 | 0.00 | 64 | 1014.5 |
| 20260906053540 | 28 | 149 | 8.0 | 14.5 | 0.00 | 0.00 | 0.00 | 63 | 1014.5 |
| 20260906052526 | 28 | 173 | 8.0 | 14.5 | 0.00 | 0.00 | 0.00 | 62 | 1014.6 |
| 20260906051521 | 29 | 183 | 6.4 | 8.0 | 0.00 | 0.00 | 0.00 | 61 | 1014.7 |
| 20260906050518 | 29 | 173 | 8.0 | 14.5 | 0.00 | 0.00 | 0.00 | 61 | 1014.7 |
| 20260906045519 | 29 | 154 | 8.0 | 11.3 | 0.00 | 0.00 | 0.00 | 61 | 1014.8 |
| 20260906044519 | 29 | 157 | 6.4 | 9.7 | 0.00 | 0.00 | 0.00 | 60 | 1014.7 |
| 20260906043521 | 29 | 140 | 8.0 | 9.7 | 0.00 | 0.00 | 0.00 | 60 | 1014.7 |
| 20260906042532 | 30 | 147 | 6.4 | 9.7 | 0.00 | 0.00 | 0.00 | 58 | 1014.7 |
| 20260906041528 | 30 | 134 | 11.3 | 14.5 | 0.00 | 0.00 | 0.00 | 58 | 1014.7 |
| 20260906040523 | 30 | 129 | 11.3 | 14.5 | 0.00 | 0.00 | 0.00 | 57 | 1014.7 |
| 20260906035521 | 30 | 121 | 9.7 | 16.1 | 0.00 | 0.00 | 0.00 | 55 | 1014.5 |
| 20260906034527 | 31 | 121 | 9.7 | 11.3 | 0.00 | 0.00 | 0.00 | 54 | 1014.5 |
| 20260906033528 | 31 | 126 | 9.7 | 11.3 | 0.00 | 0.00 | 0.00 | 54 | 1014.3 |
| 20260906032529 | 31 | 119 | 9.7 | 11.3 | 0.00 | 0.00 | 0.00 | 53 | 1014.1 |
| 20260906031526 | 31 | 130 | 11.3 | 16.1 | 0.00 | 0.00 | 0.00 | 52 | 1013.9 |
| 20260906030523 | 31 | 132 | 9.7 | 12.9 | 0.00 | 0.00 | 0.00 | 51 | 1013.8 |
| 20260906025536 | 31 | 117 | 9.7 | 12.9 | 0.00 | 0.00 | 0.00 | 51 | 1013.6 |
| 20260906024517 | 31 | 124 | 11.3 | 14.5 | 0.00 | 0.00 | 0.00 | 50 | 1013.2 |
| 20260906023533 | 31 | 112 | 11.3 | 12.9 | 0.00 | 0.00 | 0.00 | 49 | 1012.9 |
| 20260906022548 | 32 | 115 | 12.9 | 16.1 | 0.00 | 0.00 | 0.00 | 48 | 1012.8 |
| 20260906021529 | 32 | 139 | 9.7 | 12.9 | 0.00 | 0.00 | 0.00 | 46 | 1012.6 |
| 20260906020529 | 32 | 140 | 8.0 | 12.9 | 0.00 | 0.00 | 0.00 | 44 | 1012.5 |
| 20260906015524 | 31 | 145 | 9.7 | 12.9 | 0.00 | 0.00 | 0.00 | 43 | 1012.5 |
| 20260906014540 | 31 | 182 | 4.8 | 4.8 | 0.00 | 0.00 | 0.00 | 42 | 1012.4 |
| 20260906013522 | 31 | 174 | 3.2 | 4.8 | 0.00 | 0.00 | 0.00 | 41 | 1012.3 |
| 20260906012521 | 32 | 168 | 4.8 | 6.4 | 0.00 | 0.00 | 0.00 | 41 | 1012.1 |
| 20260906011528 | 32 | 163 | 4.8 | 4.8 | 0.00 | 0.00 | 0.00 | 40 | 1012.1 |
| 20260906010524 | 32 | 155 | 4.8 | 6.4 | 0.00 | 0.00 | 0.00 | 39 | 1012.1 |
| 20260906005519 | 33 | 146 | 4.8 | 6.4 | 0.00 | 0.00 | 0.00 | 38 | 1012.1 |
| 20260906004520 | 33 | 121 | 4.8 | 8.0 | 0.00 | 0.00 | 0.00 | 37 | 1011.9 |
| 20260906003532 | 34 | 120 | 6.4 | 8.0 | 0.00 | 0.00 | 0.00 | 36 | 1011.9 |
| 20260906002527 | 35 | 119 | 6.4 | 9.7 | 0.00 | 0.00 | 0.00 | 35 | 1012.0 |
| 20260906001544 | 35 | 144 | 6.4 | 8.0 | 0.00 | 0.00 | 0.00 | 35 | 1012.0 |
| 20260906000519 | 35 | 131 | 8.0 | 11.3 | 0.00 | 0.00 | 0.00 | 35 | 1011.9 |
| 20260905235531 | 35 | 126 | 8.0 | 12.9 | 0.00 | 0.00 | 0.00 | 34 | 1011.9 |